No.10 Hasshomaru — JD2992 — position and weather

sailwx.info

Track history (hours):
 
Tides and Currents Weather Stations Pressure Air Temp Water Temp Dewpoint Dewpoint Depression Visibility Wind Speed Wind Dir Waves Ship Positions

No.10 Hasshomaru

Last reported at 2018-May-24 14:43 UTC. Time now 2018-May-26 17:44 UTC.
Position N 34°52' E 139°52'.

Length 105 m; draft 6.2 m.

Type: Tanker. MMSI: 431001112.

Date/timePositionNaut miles runAvg speedWind from/ knotsBaromVisibWave heightAir tempDewpointWater temp
2018-May-24 14:43N 34°52' E 139°52'313.7
2018-May-24 14:30N 34°52' E 139°49'815.6
2018-May-24 14:00N 34°58' E 139°44'713.7
2018-May-24 13:30N 35°05' E 139°44'25 3.5
2018-May-24 06:24N 35°30' E 139°44'3 7.5
2018-May-24 05:57N 35°26' E 139°42'0 0.5
2018-May-24 05:21N 35°26' E 139°43'3 7.9
2018-May-24 05:00N 35°24' E 139°41'2 0.3
2018-May-23 23:18N 35°24' E 139°40'1 3.4
2018-May-23 23:01N 35°24' E 139°40'3 6.2
2018-May-23 22:30N 35°22' E 139°43'0 0.0
2018-May-23 22:00N 35°22' E 139°43'2 4.9
2018-May-23 21:30N 35°19' E 139°44'510.7
2018-May-23 21:01N 35°15' E 139°47'612.1
2018-May-23 20:30N 35°09' E 139°46'714.4
2018-May-23 20:00N 35°02' E 139°45'17 0.5
2018-May-22 12:38N 34°55' E 140°04'413.4
2018-May-22 12:22N 34°54' E 140°00'713.1
2018-May-22 11:51N 34°52' E 139°52'513.2
2018-May-22 11:30N 34°53' E 139°47'714.3
2018-May-22 11:00N 35°00' E 139°44'713.4
2018-May-22 10:30N 35°06' E 139°45'713.3
2018-May-22 10:00N 35°13' E 139°47'5 9.8
2018-May-22 09:30N 35°18' E 139°45'510.6
2018-May-22 09:00N 35°22' E 139°41'3 0.3
2018-May-21 23:17N 35°24' E 139°40'1 4.1
2018-May-21 23:00N 35°24' E 139°41'4 9.1
2018-May-21 22:30N 35°26' E 139°45'4 0.6
2018-May-21 14:45N 35°29' E 139°49'0 0.0
2018-May-21 14:09N 35°29' E 139°49'0 0.1
2018-May-21 13:57N 35°29' E 139°49'0 0.0
2018-May-21 13:27N 35°29' E 139°49'1 2.7
2018-May-21 13:00N 35°30' E 139°48'1 0.2
2018-May-21 06:30N 35°31' E 139°46'4 5.3
2018-May-21 05:42N 35°28' E 139°42'211.1
2018-May-21 05:29N 35°26' E 139°44'3 5.9
2018-May-21 05:00N 35°23' E 139°44'0 0.0
2018-May-21 04:18N 35°23' E 139°44'0 0.0
2018-May-21 04:00N 35°23' E 139°44'0 0.0
2018-May-21 03:24N 35°23' E 139°44'0 0.0
2018-May-21 03:00N 35°23' E 139°44'0 0.0
2018-May-21 02:30N 35°23' E 139°44'0 0.0
2018-May-21 01:54N 35°23' E 139°44'0 0.1
2018-May-21 01:28N 35°23' E 139°44'4 9.6
2018-May-21 01:00N 35°19' E 139°44'510.0
2018-May-21 00:29N 35°14' E 139°47'612.5
2018-May-21 00:00N 35°08' E 139°46'714.3
2018-May-20 23:30N 35°01' E 139°45'612.4
2018-May-20 23:00N 34°55' E 139°46'  
2018-May-15 14:20N 41°41' E 139°52'812.7
2018-May-15 13:44N 41°34' E 139°54'312.3
2018-May-15 13:30N 41°31' E 139°55'1611.2
2018-May-15 12:06N 41°21' E 140°12'212.6
2018-May-15 11:58N 41°22' E 140°14'713.0
2018-May-15 11:26N 41°26' E 140°22'510.3
2018-May-15 10:58N 41°27' E 140°28'5 9.3
2018-May-15 10:29N 41°29' E 140°34'510.8
2018-May-15 10:00N 41°32' E 140°39'611.9
2018-May-15 09:30N 41°34' E 140°46'611.1
2018-May-15 09:01N 41°37' E 140°53'510.6
2018-May-15 08:31N 41°36' E 141°00'510.7
2018-May-15 08:00N 41°34' E 141°07'612.0
2018-May-15 07:30N 41°32' E 141°15'712.8
2018-May-15 06:59N 41°30' E 141°23'911.3
2018-May-15 06:12N 41°26' E 141°33'  
Track history (hours):
 
Tides and Currents Weather Stations Pressure Air Temp Water Temp Dewpoint Dewpoint Depression Visibility Wind Speed Wind Dir Waves Ship Positions

No.10 Hasshomaru

Last reported at 2018-May-24 14:43 UTC. Time now 2018-May-26 17:44 UTC.
Position N 34°52' E 139°52'.

Length 105 m; draft 6.2 m.

Type: Tanker. MMSI: 431001112.

Date/timePositionNaut miles runAvg speedWind from/ knotsBaromVisibWave heightAir tempDewpointWater temp
2018-May-24 14:43N 34°52' E 139°52'313.7
2018-May-24 14:30N 34°52' E 139°49'815.6
2018-May-24 14:00N 34°58' E 139°44'713.7
2018-May-24 13:30N 35°05' E 139°44'25 3.5
2018-May-24 06:24N 35°30' E 139°44'3 7.5
2018-May-24 05:57N 35°26' E 139°42'0 0.5
2018-May-24 05:21N 35°26' E 139°43'3 7.9
2018-May-24 05:00N 35°24' E 139°41'2 0.3
2018-May-23 23:18N 35°24' E 139°40'1 3.4
2018-May-23 23:01N 35°24' E 139°40'3 6.2
2018-May-23 22:30N 35°22' E 139°43'0 0.0
2018-May-23 22:00N 35°22' E 139°43'2 4.9
2018-May-23 21:30N 35°19' E 139°44'510.7
2018-May-23 21:01N 35°15' E 139°47'612.1
2018-May-23 20:30N 35°09' E 139°46'714.4
2018-May-23 20:00N 35°02' E 139°45'17 0.5
2018-May-22 12:38N 34°55' E 140°04'413.4
2018-May-22 12:22N 34°54' E 140°00'713.1
2018-May-22 11:51N 34°52' E 139°52'513.2
2018-May-22 11:30N 34°53' E 139°47'714.3
2018-May-22 11:00N 35°00' E 139°44'713.4
2018-May-22 10:30N 35°06' E 139°45'713.3
2018-May-22 10:00N 35°13' E 139°47'5 9.8
2018-May-22 09:30N 35°18' E 139°45'510.6
2018-May-22 09:00N 35°22' E 139°41'3 0.3
2018-May-21 23:17N 35°24' E 139°40'1 4.1
2018-May-21 23:00N 35°24' E 139°41'4 9.1
2018-May-21 22:30N 35°26' E 139°45'4 0.6
2018-May-21 14:45N 35°29' E 139°49'0 0.0
2018-May-21 14:09N 35°29' E 139°49'0 0.1
2018-May-21 13:57N 35°29' E 139°49'0 0.0
2018-May-21 13:27N 35°29' E 139°49'1 2.7
2018-May-21 13:00N 35°30' E 139°48'1 0.2
2018-May-21 06:30N 35°31' E 139°46'4 5.3
2018-May-21 05:42N 35°28' E 139°42'211.1
2018-May-21 05:29N 35°26' E 139°44'3 5.9
2018-May-21 05:00N 35°23' E 139°44'0 0.0
2018-May-21 04:18N 35°23' E 139°44'0 0.0
2018-May-21 04:00N 35°23' E 139°44'0 0.0
2018-May-21 03:24N 35°23' E 139°44'0 0.0
2018-May-21 03:00N 35°23' E 139°44'0 0.0
2018-May-21 02:30N 35°23' E 139°44'0 0.0
2018-May-21 01:54N 35°23' E 139°44'0 0.1
2018-May-21 01:28N 35°23' E 139°44'4 9.6
2018-May-21 01:00N 35°19' E 139°44'510.0
2018-May-21 00:29N 35°14' E 139°47'612.5
2018-May-21 00:00N 35°08' E 139°46'714.3
2018-May-20 23:30N 35°01' E 139°45'612.4
2018-May-20 23:00N 34°55' E 139°46'  
2018-May-15 14:20N 41°41' E 139°52'812.7
2018-May-15 13:44N 41°34' E 139°54'312.3
2018-May-15 13:30N 41°31' E 139°55'1611.2
2018-May-15 12:06N 41°21' E 140°12'212.6
2018-May-15 11:58N 41°22' E 140°14'713.0
2018-May-15 11:26N 41°26' E 140°22'510.3
2018-May-15 10:58N 41°27' E 140°28'5 9.3
2018-May-15 10:29N 41°29' E 140°34'510.8
2018-May-15 10:00N 41°32' E 140°39'611.9
2018-May-15 09:30N 41°34' E 140°46'611.1
2018-May-15 09:01N 41°37' E 140°53'510.6
2018-May-15 08:31N 41°36' E 141°00'510.7
2018-May-15 08:00N 41°34' E 141°07'612.0
2018-May-15 07:30N 41°32' E 141°15'712.8
2018-May-15 06:59N 41°30' E 141°23'911.3
2018-May-15 06:12N 41°26' E 141°33'  

Dump ship's entire track history